createdAt,value
2022-12-01T00:01:12.068Z,14.42
2022-12-01T00:03:39.046Z,14.57
2022-12-01T00:06:13.924Z,14.74
2022-12-01T00:08:40.384Z,14.80
2022-12-01T00:11:11.602Z,15.61
2022-12-01T00:13:38.515Z,14.93
2022-12-01T00:16:16.650Z,15.85
2022-12-01T00:18:43.930Z,15.44
2022-12-01T00:21:15.319Z,15.52
2022-12-01T00:23:51.272Z,15.58
2022-12-01T00:26:19.934Z,16.01
2022-12-01T00:28:55.272Z,16.19
2022-12-01T00:31:22.242Z,16.66
2022-12-01T00:33:48.792Z,16.56
2022-12-01T00:36:15.297Z,15.81
2022-12-01T00:38:41.762Z,16.46
2022-12-01T00:41:08.589Z,16.28
2022-12-01T00:43:35.295Z,15.78
2022-12-01T00:46:01.858Z,15.92
2022-12-01T00:48:28.374Z,15.95
2022-12-01T00:50:55.780Z,15.91
2022-12-01T00:53:23.388Z,15.98
2022-12-01T00:55:49.995Z,15.83
2022-12-01T00:58:16.493Z,15.49
2022-12-01T01:00:43.057Z,14.94
2022-12-01T01:03:11.143Z,15.35
2022-12-01T01:05:39.847Z,14.75
2022-12-01T01:08:11.288Z,15.15
2022-12-01T01:10:42.483Z,14.61
2022-12-01T01:13:10.010Z,14.61
2022-12-01T01:15:36.572Z,14.40
2022-12-01T01:18:03.248Z,14.68
2022-12-01T01:20:29.713Z,15.30
2022-12-01T01:22:56.202Z,15.04
2022-12-01T01:25:22.768Z,15.33
2022-12-01T01:27:51.315Z,16.22
2022-12-01T01:30:18.516Z,16.39
2022-12-01T01:32:44.968Z,15.86
2022-12-01T01:35:11.473Z,16.44
2022-12-01T01:37:37.944Z,16.65
2022-12-01T01:40:05.093Z,16.54
2022-12-01T01:42:31.564Z,16.38
2022-12-01T01:44:58.847Z,16.77
2022-12-01T01:47:39.557Z,17.26
2022-12-01T01:50:14.052Z,17.46
2022-12-01T01:52:45.030Z,16.74
2022-12-01T01:55:13.416Z,17.16
2022-12-01T01:57:41.856Z,16.88
2022-12-01T02:00:12.834Z,16.96
2022-12-01T02:02:44.758Z,16.77
2022-12-01T02:05:26.579Z,16.45
2022-12-01T02:07:56.771Z,17.24
2022-12-01T02:10:46.609Z,17.33
2022-12-01T02:13:32.124Z,16.65
2022-12-01T02:16:16.439Z,16.38
2022-12-01T02:19:03.740Z,16.69
2022-12-01T02:21:47.955Z,16.53
2022-12-01T02:24:31.185Z,16.45
2022-12-01T02:27:29.451Z,16.51
2022-12-01T02:30:05.016Z,16.50
2022-12-01T02:32:50.303Z,15.96
2022-12-01T02:35:22.912Z,15.72
2022-12-01T02:38:07.057Z,15.23
2022-12-01T02:40:51.372Z,15.96
2022-12-01T02:43:25.890Z,16.15
2022-12-01T02:46:02.695Z,15.61
2022-12-01T02:48:35.345Z,15.62
2022-12-01T02:51:12.086Z,15.02
2022-12-01T02:53:38.651Z,15.45
2022-12-01T02:56:10.417Z,15.81
2022-12-01T02:58:36.909Z,15.57
2022-12-01T03:01:24.682Z,15.68
2022-12-01T03:04:16.188Z,15.71
2022-12-01T03:07:00.872Z,15.47
2022-12-01T03:09:33.293Z,15.70
2022-12-01T03:12:15.838Z,15.32
2022-12-01T03:14:45.414Z,15.30
2022-12-01T03:17:20.496Z,15.22
2022-12-01T03:19:59.740Z,15.26
2022-12-01T03:22:36.826Z,14.88
2022-12-01T03:25:05.361Z,14.78
2022-12-01T03:27:44.056Z,14.97
2022-12-01T03:30:17.916Z,14.47
2022-12-01T03:32:52.008Z,13.89
2022-12-01T03:35:25.834Z,14.08
2022-12-01T03:38:21.574Z,14.30
2022-12-01T03:40:52.823Z,14.29
2022-12-01T03:43:26.285Z,13.62
2022-12-01T03:45:56.794Z,13.84
2022-12-01T03:48:24.979Z,13.63
2022-12-01T03:51:31.934Z,13.44
2022-12-01T03:54:19.354Z,13.97
2022-12-01T03:56:55.250Z,14.28
2022-12-01T03:59:25.442Z,14.06
2022-12-01T04:01:51.963Z,14.20
2022-12-01T04:04:18.816Z,13.89
2022-12-01T04:06:49.077Z,14.31
2022-12-01T04:09:16.447Z,14.00
2022-12-01T04:11:42.915Z,13.66
2022-12-01T04:14:29.092Z,13.71
2022-12-01T04:16:55.654Z,13.87
2022-12-01T04:19:22.114Z,13.83
2022-12-01T04:21:48.707Z,14.09
2022-12-01T04:24:15.455Z,14.14
2022-12-01T04:26:41.928Z,13.84
2022-12-01T04:29:10.564Z,13.95
2022-12-01T04:31:37.059Z,14.17
2022-12-01T04:34:04.214Z,14.03
2022-12-01T04:36:33.253Z,13.84
2022-12-01T04:39:00.672Z,12.94
2022-12-01T04:41:27.405Z,12.55
2022-12-01T04:43:54.988Z,12.55
2022-12-01T04:46:22.986Z,12.27
2022-12-01T04:48:50.237Z,12.14
2022-12-01T04:51:17.231Z,11.93
2022-12-01T04:53:43.734Z,12.41
2022-12-01T04:56:10.218Z,12.16
2022-12-01T04:58:37.438Z,12.53
2022-12-01T05:01:12.497Z,12.69
2022-12-01T05:03:41.452Z,12.49
2022-12-01T05:06:14.009Z,12.79
2022-12-01T05:08:41.482Z,12.65
2022-12-01T05:11:09.952Z,12.51
2022-12-01T05:13:37.990Z,12.32
2022-12-01T05:16:10.209Z,12.54
2022-12-01T05:18:36.843Z,12.83
2022-12-01T05:21:05.669Z,12.72
2022-12-01T05:23:35.671Z,13.33
2022-12-01T05:26:04.447Z,13.52
2022-12-01T05:28:31.200Z,13.53
2022-12-01T05:30:57.917Z,13.15
2022-12-01T05:33:26.448Z,13.36
2022-12-01T05:35:53.580Z,13.15
2022-12-01T05:38:20.601Z,13.41
2022-12-01T05:40:55.447Z,13.50
2022-12-01T05:43:28.529Z,13.89
2022-12-01T05:45:57.463Z,14.09
2022-12-01T05:48:25.022Z,13.72
2022-12-01T05:50:51.685Z,14.25
2022-12-01T05:53:19.279Z,13.92
2022-12-01T05:55:45.815Z,14.32
2022-12-01T05:58:12.603Z,13.97
2022-12-01T06:00:45.318Z,14.01
2022-12-01T06:03:13.123Z,13.62
2022-12-01T06:05:39.874Z,13.47
2022-12-01T06:08:06.399Z,13.42
2022-12-01T06:10:33.074Z,13.42
2022-12-01T06:12:59.654Z,13.85
2022-12-01T06:15:26.782Z,13.98
2022-12-01T06:17:53.252Z,13.39
2022-12-01T06:20:19.733Z,13.36
2022-12-01T06:22:48.083Z,13.19
2022-12-01T06:25:14.615Z,12.93
2022-12-01T06:27:41.098Z,12.35
2022-12-01T06:30:08.380Z,12.00
2022-12-01T06:32:35.223Z,12.62
2022-12-01T06:35:02.044Z,12.10
2022-12-01T06:37:28.524Z,12.50
2022-12-01T06:39:55.000Z,12.05
2022-12-01T06:42:21.547Z,12.25
2022-12-01T06:44:48.048Z,12.68
2022-12-01T06:47:14.549Z,12.24
2022-12-01T06:49:41.323Z,12.47
2022-12-01T06:52:07.799Z,12.33
2022-12-01T06:54:34.248Z,12.75
2022-12-01T06:57:00.711Z,13.23
2022-12-01T06:59:27.510Z,13.36
2022-12-01T07:01:54.422Z,13.47
2022-12-01T07:04:20.931Z,13.69
2022-12-01T07:06:47.435Z,13.99
2022-12-01T07:09:13.920Z,13.87
2022-12-01T07:11:40.380Z,13.86
2022-12-01T07:14:11.675Z,13.51
2022-12-01T07:16:38.266Z,13.52
2022-12-01T07:19:04.757Z,13.26
2022-12-01T07:21:31.217Z,13.38
2022-12-01T07:23:57.671Z,13.00
2022-12-01T07:26:24.117Z,13.44
2022-12-01T07:28:50.568Z,13.70
2022-12-01T07:31:19.064Z,13.94
2022-12-01T07:33:45.948Z,13.73
2022-12-01T07:36:13.433Z,13.60
2022-12-01T07:38:40.727Z,13.26
2022-12-01T07:41:16.808Z,13.26
2022-12-01T07:43:43.431Z,13.78
2022-12-01T07:46:18.734Z,13.65
2022-12-01T07:48:48.689Z,13.42
2022-12-01T07:51:16.821Z,13.41
2022-12-01T07:53:47.391Z,13.39
2022-12-01T07:56:14.333Z,13.76
2022-12-01T07:58:41.385Z,13.52
2022-12-01T08:01:08.933Z,13.30
2022-12-01T08:03:36.078Z,13.31
2022-12-01T08:06:04.352Z,13.39
2022-12-01T08:08:33.224Z,12.75
2022-12-01T08:11:09.473Z,12.82
2022-12-01T08:13:35.963Z,12.81
2022-12-01T08:16:07.547Z,12.74
2022-12-01T08:18:36.115Z,12.46
2022-12-01T08:21:03.551Z,12.95
2022-12-01T08:23:30.643Z,12.70
2022-12-01T08:26:11.399Z,12.37
2022-12-01T08:28:40.585Z,12.80
2022-12-01T08:31:08.832Z,12.15
2022-12-01T08:33:35.559Z,12.44
2022-12-01T08:36:03.706Z,12.16
2022-12-01T08:38:30.309Z,11.92
2022-12-01T08:41:08.218Z,12.02
2022-12-01T08:43:56.548Z,12.16
2022-12-01T08:46:21.887Z,11.85
2022-12-01T08:48:48.377Z,11.74
2022-12-01T08:51:17.255Z,11.90
2022-12-01T08:53:47.362Z,11.81
2022-12-01T08:56:16.288Z,11.48
2022-12-01T08:58:43.094Z,11.27
2022-12-01T09:01:14.352Z,11.27
2022-12-01T09:03:42.247Z,11.23
2022-12-01T09:06:14.295Z,10.78
2022-12-01T09:08:41.689Z,11.15
2022-12-01T09:11:11.929Z,10.98
2022-12-01T09:13:40.352Z,10.89
2022-12-01T09:16:15.735Z,10.83
2022-12-01T09:18:43.927Z,10.56
2022-12-01T09:21:21.115Z,11.22
2022-12-01T09:23:48.330Z,10.72
2022-12-01T09:26:16.065Z,10.64
2022-12-01T09:28:42.563Z,10.34
2022-12-01T09:31:11.663Z,10.25
2022-12-01T09:33:38.880Z,10.98
2022-12-01T09:36:07.860Z,10.48
2022-12-01T09:38:36.002Z,10.44
2022-12-01T09:41:16.154Z,10.34
2022-12-01T09:44:11.326Z,10.24
2022-12-01T09:46:46.776Z,10.44
2022-12-01T09:49:27.937Z,9.90
2022-12-01T09:51:55.010Z,9.69
2022-12-01T09:54:21.617Z,10.03
2022-12-01T09:56:51.944Z,10.38
2022-12-01T09:59:36.350Z,10.23
2022-12-01T10:02:20.398Z,10.43
2022-12-01T10:04:50.488Z,10.58
2022-12-01T10:07:38.509Z,11.17
2022-12-01T10:10:16.565Z,10.26
2022-12-01T10:12:46.289Z,10.88
2022-12-01T10:15:12.706Z,10.53
2022-12-01T10:17:57.900Z,10.62
2022-12-01T10:20:48.308Z,10.59
2022-12-01T10:23:20.652Z,10.40
2022-12-01T10:25:58.908Z,10.12
2022-12-01T10:28:46.599Z,10.66
2022-12-01T10:31:16.095Z,10.69
2022-12-01T10:34:00.761Z,10.63
2022-12-01T10:36:30.200Z,10.50
2022-12-01T10:38:56.794Z,10.67
2022-12-01T10:41:28.188Z,10.81
2022-12-01T10:43:59.533Z,10.89
2022-12-01T10:46:29.298Z,10.71
2022-12-01T10:48:58.642Z,11.08
2022-12-01T10:51:27.392Z,11.16
2022-12-01T10:54:07.677Z,11.88
2022-12-01T10:56:40.585Z,12.00
2022-12-01T10:59:27.615Z,12.50
2022-12-01T11:01:55.933Z,13.50
2022-12-01T11:04:31.617Z,12.90
2022-12-01T11:06:58.472Z,12.60
2022-12-01T11:09:29.143Z,13.32
2022-12-01T11:12:02.335Z,13.14
2022-12-01T11:14:34.727Z,13.00
2022-12-01T11:17:30.517Z,13.20
2022-12-01T11:19:57.485Z,13.46
2022-12-01T11:22:30.391Z,12.73
2022-12-01T11:25:03.243Z,13.09
2022-12-01T11:27:34.729Z,13.33
2022-12-01T11:30:07.876Z,13.90
2022-12-01T11:32:39.249Z,13.50
2022-12-01T11:35:18.119Z,14.06
2022-12-01T11:40:48.884Z,13.75
2022-12-01T11:43:23.744Z,13.59
2022-12-01T11:45:51.522Z,13.64
2022-12-01T11:48:30.381Z,13.08
2022-12-01T11:51:02.140Z,13.43
2022-12-01T11:53:33.566Z,13.67
2022-12-01T11:56:26.405Z,14.10
2022-12-01T11:59:03.412Z,14.31
2022-12-01T12:01:47.256Z,13.69
2022-12-01T12:04:26.682Z,13.68
2022-12-01T12:07:13.309Z,13.41
2022-12-01T12:10:00.899Z,13.89
2022-12-01T12:12:43.931Z,13.43
2022-12-01T12:15:32.690Z,14.58
2022-12-01T12:18:23.988Z,14.18
2022-12-01T12:21:05.436Z,14.94
2022-12-01T12:23:34.520Z,14.55
2022-12-01T12:26:21.362Z,14.38
2022-12-01T12:29:25.560Z,14.75
2022-12-01T12:32:16.834Z,15.00
2022-12-01T12:35:26.175Z,15.21
2022-12-01T12:38:22.197Z,15.11
2022-12-01T12:41:32.362Z,15.58
2022-12-01T12:44:17.857Z,15.96
2022-12-01T12:47:02.342Z,15.80
2022-12-01T12:49:50.239Z,15.51
2022-12-01T12:52:30.990Z,15.02
2022-12-01T12:55:04.186Z,14.79
2022-12-01T12:57:38.607Z,14.98
2022-12-01T13:00:17.638Z,14.40
2022-12-01T13:02:46.243Z,14.84
2022-12-01T13:05:21.209Z,15.08
2022-12-01T13:07:59.267Z,15.17
2022-12-01T13:10:58.877Z,14.68
2022-12-01T13:13:50.332Z,14.20
2022-12-01T13:16:22.900Z,14.45
2022-12-01T13:19:02.879Z,14.63
2022-12-01T13:21:37.608Z,14.49
2022-12-01T13:24:06.720Z,14.76
2022-12-01T13:26:38.170Z,13.93
2022-12-01T13:29:07.794Z,14.13
2022-12-01T13:31:44.147Z,14.07
2022-12-01T13:34:25.458Z,14.09
2022-12-01T13:36:55.244Z,14.54
2022-12-01T13:39:29.126Z,14.36
2022-12-01T13:42:00.198Z,14.01
2022-12-01T13:44:41.668Z,13.55
2022-12-01T13:47:11.029Z,14.55
2022-12-01T13:49:52.231Z,14.65
2022-12-01T13:52:21.814Z,14.63
2022-12-01T13:55:09.720Z,14.54
2022-12-01T13:57:45.113Z,15.20
2022-12-01T14:00:33.628Z,14.44
2022-12-01T14:03:12.188Z,14.33
2022-12-01T14:05:56.328Z,15.01
2022-12-01T14:08:29.739Z,15.67
2022-12-01T14:11:22.598Z,15.27
2022-12-01T14:14:33.994Z,15.11
2022-12-01T14:17:02.821Z,15.44
2022-12-01T14:19:49.219Z,15.71
2022-12-01T14:22:33.679Z,15.36
2022-12-01T14:25:01.715Z,14.69
2022-12-01T14:27:40.860Z,15.12
2022-12-01T14:30:41.402Z,15.19
2022-12-01T14:33:38.737Z,15.05
2022-12-01T14:36:23.207Z,15.27
2022-12-01T14:39:01.379Z,14.99
2022-12-01T14:41:38.041Z,15.58
2022-12-01T14:44:33.071Z,15.14
2022-12-01T14:47:12.721Z,16.03
2022-12-01T14:50:06.539Z,16.14
2022-12-01T14:52:38.131Z,15.87
2022-12-01T14:55:13.919Z,16.30
2022-12-01T14:57:47.975Z,16.27
2022-12-01T15:00:23.229Z,16.53
2022-12-01T15:02:57.702Z,16.04
2022-12-01T15:05:30.758Z,15.07
2022-12-01T15:08:33.325Z,15.09
2022-12-01T15:10:58.250Z,15.61
2022-12-01T15:13:40.816Z,15.28
2022-12-01T15:16:20.074Z,15.61
2022-12-01T15:18:47.523Z,15.38
2022-12-01T15:21:28.070Z,15.43
2022-12-01T15:24:00.921Z,15.38
2022-12-01T15:26:46.702Z,15.69
2022-12-01T15:29:20.612Z,15.31
2022-12-01T15:31:50.566Z,15.30
2022-12-01T15:34:26.691Z,15.75
2022-12-01T15:36:54.138Z,16.05
2022-12-01T15:39:34.836Z,16.26
2022-12-01T15:42:02.961Z,16.03
2022-12-01T15:44:36.516Z,16.19
2022-12-01T15:47:35.011Z,16.46
2022-12-01T15:50:03.415Z,15.87
2022-12-01T15:52:30.194Z,16.25
2022-12-01T15:55:03.789Z,16.65
2022-12-01T15:57:30.416Z,15.94
2022-12-01T15:59:57.613Z,16.51
2022-12-01T16:02:32.179Z,16.70
2022-12-01T16:05:14.802Z,16.41
2022-12-01T16:10:36.402Z,17.41
2022-12-01T16:13:35.002Z,17.16
2022-12-01T16:16:42.661Z,17.54
2022-12-01T16:19:09.157Z,16.95
2022-12-01T16:21:45.372Z,17.04
2022-12-01T16:24:38.660Z,17.67
2022-12-01T16:27:20.245Z,17.57
2022-12-01T16:30:00.652Z,17.04
2022-12-01T16:32:40.035Z,17.59
2022-12-01T16:35:21.992Z,17.05
2022-12-01T16:37:48.650Z,16.70
2022-12-01T16:40:15.755Z,16.49
2022-12-01T16:42:42.894Z,16.49
2022-12-01T16:45:13.722Z,17.17
2022-12-01T16:47:41.531Z,17.78
2022-12-01T16:50:14.176Z,17.38
2022-12-01T16:52:44.630Z,17.34
2022-12-01T16:55:41.510Z,17.44
2022-12-01T16:58:08.005Z,17.99
2022-12-01T17:00:35.030Z,17.99
2022-12-01T17:03:02.061Z,18.66
2022-12-01T17:05:28.536Z,18.76
2022-12-01T17:07:55.270Z,18.39
2022-12-01T17:10:22.639Z,18.56
2022-12-01T17:12:49.111Z,18.88
2022-12-01T17:15:15.973Z,19.25
2022-12-01T17:17:42.739Z,19.50
2022-12-01T17:20:10.265Z,19.83
2022-12-01T17:22:36.853Z,19.55
2022-12-01T17:25:04.360Z,19.94
2022-12-01T17:27:31.508Z,19.47
2022-12-01T17:29:59.759Z,19.33
2022-12-01T17:32:27.294Z,19.15
2022-12-01T17:34:54.467Z,19.20
2022-12-01T17:37:21.603Z,19.08
2022-12-01T17:39:49.010Z,18.92
2022-12-01T17:42:16.327Z,18.64
2022-12-01T17:44:42.832Z,18.74
2022-12-01T17:47:09.283Z,18.72
2022-12-01T17:49:36.139Z,18.78
2022-12-01T17:52:03.871Z,18.48
2022-12-01T17:54:30.393Z,18.45
2022-12-01T17:56:56.914Z,18.34
2022-12-01T17:59:23.545Z,18.36
2022-12-01T18:01:50.371Z,19.44
2022-12-01T18:04:16.975Z,19.41
2022-12-01T18:06:43.453Z,19.65
2022-12-01T18:09:09.938Z,19.06
2022-12-01T18:11:36.427Z,19.05
2022-12-01T18:14:02.917Z,18.47
2022-12-01T18:16:31.905Z,18.69
2022-12-01T18:19:00.129Z,18.05
2022-12-01T18:21:28.048Z,17.84
2022-12-01T18:23:59.078Z,17.65
2022-12-01T18:26:27.878Z,18.52
2022-12-01T18:29:00.409Z,18.00
2022-12-01T18:31:28.539Z,18.33
2022-12-01T18:33:58.355Z,18.41
2022-12-01T18:36:26.063Z,18.50
2022-12-01T18:38:53.591Z,18.04
2022-12-01T18:41:20.819Z,17.30
2022-12-01T18:43:47.359Z,18.19
2022-12-01T18:46:15.770Z,18.44
2022-12-01T18:48:47.134Z,17.68
2022-12-01T18:51:14.489Z,17.71
2022-12-01T18:53:41.442Z,17.35
2022-12-01T18:56:11.703Z,17.55
2022-12-01T18:58:39.409Z,18.10
2022-12-01T19:01:23.987Z,18.15
2022-12-01T19:03:50.612Z,17.89
2022-12-01T19:06:18.043Z,17.50
2022-12-01T19:08:44.571Z,17.84
2022-12-01T19:11:11.041Z,18.00
2022-12-01T19:13:37.802Z,17.77
2022-12-01T19:16:09.867Z,17.82
2022-12-01T19:18:37.301Z,17.36
2022-12-01T19:21:06.123Z,17.89
2022-12-01T19:23:32.733Z,17.53
2022-12-01T19:26:03.456Z,17.61
2022-12-01T19:28:29.922Z,18.21
2022-12-01T19:30:56.421Z,17.72
2022-12-01T19:33:22.880Z,18.38
2022-12-01T19:35:49.370Z,17.80
2022-12-01T19:38:15.869Z,17.38
2022-12-01T19:40:42.336Z,18.02
2022-12-01T19:43:08.925Z,18.09
2022-12-01T19:45:39.074Z,18.36
2022-12-01T19:48:06.258Z,17.42
2022-12-01T19:50:36.324Z,17.84
2022-12-01T19:53:03.394Z,17.73
2022-12-01T19:55:30.028Z,18.19
2022-12-01T19:57:56.513Z,18.02
2022-12-01T20:00:23.108Z,17.78
2022-12-01T20:02:49.667Z,17.63
2022-12-01T20:05:16.193Z,17.11
2022-12-01T20:07:42.700Z,17.87
2022-12-01T20:10:10.083Z,18.10
2022-12-01T20:12:36.585Z,17.61
2022-12-01T20:15:03.292Z,17.20
2022-12-01T20:17:29.746Z,17.84
2022-12-01T20:19:56.229Z,17.26
2022-12-01T20:22:22.684Z,17.11
2022-12-01T20:24:49.419Z,17.41
2022-12-01T20:27:16.120Z,17.31
2022-12-01T20:29:42.572Z,17.62
2022-12-01T20:32:09.170Z,17.48
2022-12-01T20:34:36.177Z,16.87
2022-12-01T20:37:03.383Z,17.18
2022-12-01T20:39:30.169Z,17.13
2022-12-01T20:41:56.687Z,17.45
2022-12-01T20:44:23.275Z,16.69
2022-12-01T20:46:49.752Z,17.56
2022-12-01T20:49:17.367Z,17.34
2022-12-01T20:51:44.695Z,17.36
2022-12-01T20:54:30.033Z,17.29
2022-12-01T20:56:57.974Z,17.19
2022-12-01T20:59:24.451Z,17.32
2022-12-01T21:01:50.933Z,17.42
2022-12-01T21:04:17.449Z,16.77
2022-12-01T21:06:43.993Z,17.29
2022-12-01T21:09:10.652Z,16.81
2022-12-01T21:11:47.909Z,17.22
2022-12-01T21:14:24.240Z,17.18
2022-12-01T21:16:54.799Z,17.24
2022-12-01T21:19:30.254Z,17.48
2022-12-01T21:21:58.619Z,17.43
2022-12-01T21:24:29.915Z,17.25
2022-12-01T21:27:11.108Z,17.22
2022-12-01T21:29:40.675Z,17.88
2022-12-01T21:32:17.926Z,17.67
2022-12-01T21:34:47.271Z,17.83
2022-12-01T21:37:22.246Z,17.53
2022-12-01T21:39:50.504Z,16.98
2022-12-01T21:42:21.044Z,17.42
2022-12-01T21:44:47.993Z,17.71
2022-12-01T21:47:21.809Z,17.17
2022-12-01T21:49:52.686Z,16.99
2022-12-01T21:52:25.570Z,17.02
2022-12-01T21:54:52.704Z,16.82
2022-12-01T21:57:45.419Z,16.92
2022-12-01T22:00:34.641Z,16.70
2022-12-01T22:03:13.115Z,16.09
2022-12-01T22:05:42.890Z,16.17
2022-12-01T22:08:12.422Z,16.19
2022-12-01T22:11:09.474Z,15.69
2022-12-01T22:13:38.822Z,15.85
2022-12-01T22:16:13.005Z,16.13
2022-12-01T22:18:42.037Z,16.17
2022-12-01T22:21:30.132Z,15.55
2022-12-01T22:24:24.664Z,15.81
2022-12-01T22:27:23.735Z,15.22
2022-12-01T22:29:56.205Z,15.86
2022-12-01T22:32:31.527Z,16.12
2022-12-01T22:35:22.460Z,15.45
2022-12-01T22:37:52.197Z,15.54
2022-12-01T22:40:32.649Z,15.19
2022-12-01T22:43:14.025Z,15.02
2022-12-01T22:45:41.760Z,14.69
2022-12-01T22:48:29.698Z,14.74
2022-12-01T22:51:14.489Z,14.86
2022-12-01T22:53:43.700Z,14.88
2022-12-01T22:56:34.740Z,14.62
2022-12-01T22:59:16.386Z,14.45
2022-12-01T23:02:01.469Z,14.22
2022-12-01T23:04:38.214Z,13.83
2022-12-01T23:07:22.496Z,14.33
2022-12-01T23:09:49.005Z,14.00
2022-12-01T23:12:30.576Z,14.41
2022-12-01T23:15:16.327Z,13.71
2022-12-01T23:17:42.827Z,13.84
2022-12-01T23:20:31.624Z,13.47
2022-12-01T23:23:01.583Z,13.60
2022-12-01T23:25:29.070Z,14.16
2022-12-01T23:28:00.424Z,14.17
2022-12-01T23:30:26.966Z,14.57
2022-12-01T23:33:12.933Z,15.06
2022-12-01T23:36:02.103Z,14.92
2022-12-01T23:38:38.376Z,15.64
2022-12-01T23:41:07.531Z,15.11
2022-12-01T23:43:44.084Z,14.89
2022-12-01T23:46:20.694Z,14.57
2022-12-01T23:48:52.287Z,13.96
2022-12-01T23:51:20.307Z,13.66
2022-12-01T23:53:46.772Z,13.94
2022-12-01T23:56:20.212Z,13.91
2022-12-01T23:58:47.163Z,13.92
